createdAt,value
2018-09-01T00:00:01.796Z,72.88
2018-09-01T00:00:42.171Z,72.79
2018-09-01T00:01:22.578Z,73.17
2018-09-01T00:02:02.962Z,72.88
2018-09-01T00:02:43.378Z,73.33
2018-09-01T00:03:23.841Z,73.46
2018-09-01T00:04:04.206Z,73.46
2018-09-01T00:04:44.656Z,73.27
2018-09-01T00:05:25.342Z,73.55
2018-09-01T00:06:05.733Z,73.65
2018-09-01T00:06:46.171Z,73.27
2018-09-01T00:07:26.562Z,73.65
2018-09-01T00:08:06.899Z,73.27
2018-09-01T00:08:47.330Z,73.9
2018-09-01T00:09:27.985Z,74.19
2018-09-01T00:10:08.409Z,74.22
2018-09-01T00:10:48.780Z,74.19
2018-09-01T00:11:29.215Z,74.66
2018-09-01T00:12:09.595Z,74.28
2018-09-01T00:12:50.005Z,75.24
2018-09-01T00:13:30.428Z,75.05
2018-09-01T00:14:10.819Z,75.24
2018-09-01T00:14:51.231Z,75.43
2018-09-01T00:15:31.619Z,75.24
2018-09-01T00:16:12.065Z,74.95
2018-09-01T00:16:52.419Z,75.43
2018-09-01T00:17:32.807Z,75.43
2018-09-01T00:18:13.229Z,75.52
2018-09-01T00:18:53.608Z,75.05
2018-09-01T00:19:34.099Z,75.24
2018-09-01T00:20:14.489Z,75.43
2018-09-01T00:20:54.856Z,74.76
2018-09-01T00:21:35.273Z,74.76
2018-09-01T00:22:15.633Z,74.76
2018-09-01T00:22:56.074Z,75.14
2018-09-01T00:24:53.567Z,74.76
2018-09-01T00:25:33.907Z,74.76
2018-09-01T00:26:14.323Z,75.05
2018-09-01T00:26:54.725Z,75.24
2018-09-01T00:27:35.071Z,74.95
2018-09-01T00:28:15.516Z,75.43
2018-09-01T00:28:55.875Z,75.43
2018-09-01T00:29:36.331Z,74.95
2018-09-01T00:30:16.703Z,74.95
2018-09-01T00:30:57.135Z,75.34
2018-09-01T00:31:37.552Z,75.14
2018-09-01T00:32:17.950Z,75.43
2018-09-01T00:32:58.415Z,75.71
2018-09-01T00:33:38.735Z,75.52
2018-09-01T00:34:19.115Z,75.43
2018-09-01T00:34:59.489Z,75.62
2018-09-01T00:35:39.947Z,75.78
2018-09-01T00:36:20.391Z,75.81
2018-09-01T00:37:00.790Z,75.71
2018-09-01T00:37:41.174Z,75.78
2018-09-01T00:38:21.566Z,75.78
2018-09-01T00:39:02.011Z,76.45
2018-09-01T00:39:42.357Z,76.82
2018-09-01T00:40:22.675Z,76.86
2018-09-01T00:41:03.091Z,76.64
2018-09-01T00:41:43.544Z,76.67
2018-09-01T00:42:23.877Z,76.57
2018-09-01T00:43:04.319Z,76.48
2018-09-01T00:43:44.692Z,76.67
2018-09-01T00:44:25.123Z,76.39
2018-09-01T00:45:05.499Z,75.71
2018-09-01T00:45:45.954Z,75.81
2018-09-01T00:46:26.412Z,75.62
2018-09-01T00:47:06.808Z,75.71
2018-09-01T00:49:24.496Z,75.24
2018-09-01T00:50:04.724Z,75.05
2018-09-01T00:50:45.179Z,75.24
2018-09-01T00:51:25.548Z,75.34
2018-09-01T00:52:05.932Z,74.66
2018-09-01T00:52:46.395Z,74.9
2018-09-01T00:53:26.756Z,74.38
2018-09-01T00:54:07.158Z,74.32
2018-09-01T00:54:47.573Z,74.9
2018-09-01T00:55:27.948Z,74.9
2018-09-01T00:56:08.379Z,74.51
2018-09-01T00:56:48.760Z,74.22
2018-09-01T00:57:29.216Z,74.13
2018-09-01T00:58:09.516Z,73.36
2018-09-01T00:58:49.928Z,73.36
2018-09-01T00:59:30.300Z,73.36
2018-09-01T01:00:10.714Z,73.46
2018-09-01T01:00:51.136Z,73.27
2018-09-01T01:01:31.520Z,73.46
2018-09-01T01:02:11.878Z,73.27
2018-09-01T01:02:52.283Z,73.55
2018-09-01T01:03:32.711Z,73.36
2018-09-01T01:04:13.111Z,73.36
2018-09-01T01:04:53.436Z,73.08
2018-09-01T01:05:33.844Z,73.17
2018-09-01T01:06:14.242Z,73.27
2018-09-01T01:06:54.638Z,73.46
2018-09-01T01:07:35.054Z,73.8
2018-09-01T01:08:15.490Z,73.71
2018-09-01T01:08:55.893Z,74.38
2018-09-01T01:09:36.292Z,74.66
2018-09-01T01:10:16.676Z,74.38
2018-09-01T01:10:57.124Z,74.57
2018-09-01T01:11:37.481Z,74.66
2018-09-01T01:12:17.904Z,74.66
2018-09-01T01:12:58.305Z,74.28
2018-09-01T01:13:38.713Z,74.28
2018-09-01T01:14:19.048Z,74.09
2018-09-01T01:14:59.502Z,74.38
2018-09-01T01:15:39.919Z,74.66
2018-09-01T01:16:20.285Z,75.24
2018-09-01T01:17:00.673Z,75.43
2018-09-01T01:17:41.093Z,75.71
2018-09-01T01:18:21.477Z,75.91
2018-09-01T01:19:01.871Z,75.81
2018-09-01T01:19:42.263Z,76.25
2018-09-01T01:20:22.667Z,76.35
2018-09-01T01:21:03.055Z,77.3
2018-09-01T01:21:43.414Z,77.4
2018-09-01T01:22:23.836Z,77.3
2018-09-01T01:23:04.191Z,77.69
2018-09-01T01:23:44.665Z,78.36
2018-09-01T01:24:24.995Z,77.87
2018-09-01T01:25:05.403Z,78.07
2018-09-01T01:25:45.756Z,77.97
2018-09-01T01:26:26.187Z,78.36
2018-09-01T01:27:06.562Z,77.59
2018-09-01T01:27:46.940Z,77.21
2018-09-01T01:28:27.327Z,77.3
2018-09-01T01:29:07.761Z,77.21
2018-09-01T01:29:48.129Z,77.59
2018-09-01T01:30:28.496Z,77.69
2018-09-01T01:31:08.922Z,77.87
2018-09-01T01:31:49.305Z,77.78
2018-09-01T01:32:29.789Z,78.45
2018-09-01T01:33:10.167Z,78.36
2018-09-01T01:33:50.578Z,78.36
2018-09-01T01:34:31.035Z,78.22
2018-09-01T01:35:11.408Z,78.51
2018-09-01T01:35:51.838Z,78.99
2018-09-01T01:36:32.221Z,78.79
2018-09-01T01:37:12.628Z,78.7
2018-09-01T01:37:53.049Z,78.89
2018-09-01T01:38:33.430Z,79.46
2018-09-01T01:39:13.820Z,78.89
2018-09-01T01:39:54.222Z,79.36
2018-09-01T01:40:34.597Z,79.75
2018-09-01T01:41:14.993Z,79.85
2018-09-01T01:41:55.402Z,79.85
2018-09-01T01:42:35.769Z,79.85
2018-09-01T01:43:16.189Z,79.46
2018-09-01T01:43:56.669Z,79.65
2018-09-01T01:44:37.029Z,79.36
2018-09-01T01:45:17.419Z,79.65
2018-09-01T01:45:57.780Z,79.36
2018-09-01T01:46:38.134Z,79.46
2018-09-01T01:47:18.612Z,79.46
2018-09-01T01:47:58.952Z,79.56
2018-09-01T01:48:39.318Z,79.36
2018-09-01T01:49:19.717Z,79.65
2018-09-01T01:50:00.145Z,79.46
2018-09-01T01:50:40.555Z,79.75
2018-09-01T01:51:20.954Z,79.65
2018-09-01T01:52:01.304Z,79.36
2018-09-01T01:52:41.746Z,79.46
2018-09-01T01:53:22.083Z,79.65
2018-09-01T01:54:02.489Z,79.94
2018-09-01T01:54:42.882Z,79.75
2018-09-01T01:55:23.263Z,79.75
2018-09-01T01:56:03.689Z,80.51
2018-09-01T01:56:44.083Z,80.41
2018-09-01T01:57:24.417Z,80.8
2018-09-01T01:58:04.812Z,80.99
2018-09-01T01:58:45.191Z,80.51
2018-09-01T01:59:25.630Z,80.61
2018-09-01T02:00:06.046Z,80.22
2018-09-01T02:00:46.432Z,80.22
2018-09-01T02:01:26.802Z,79.94
2018-09-01T02:02:07.226Z,79.85
2018-09-01T02:02:47.562Z,79.36
2018-09-01T02:03:28.012Z,79.65
2018-09-01T02:04:08.361Z,79.75
2018-09-01T02:04:48.739Z,79.65
2018-09-01T02:05:29.161Z,79.46
2018-09-01T02:06:09.561Z,79.94
2018-09-01T02:06:49.896Z,79.8
2018-09-01T02:07:30.343Z,79.61
2018-09-01T02:08:10.700Z,79.61
2018-09-01T02:08:51.100Z,80.41
2018-09-01T02:09:31.509Z,80.38
2018-09-01T02:10:11.835Z,80.9
2018-09-01T02:10:52.193Z,81.24
2018-09-01T02:11:32.632Z,81.27
2018-09-01T02:12:13.029Z,81.18
2018-09-01T02:12:53.390Z,81.27
2018-09-01T02:13:33.794Z,81.27
2018-09-01T02:14:14.273Z,81.37
2018-09-01T02:14:54.682Z,80.61
2018-09-01T02:15:35.017Z,81.09
2018-09-01T02:16:15.375Z,80.51
2018-09-01T02:16:55.768Z,80.41
2018-09-01T02:17:36.183Z,80.61
2018-09-01T02:18:16.588Z,79.56
2018-09-01T02:18:57.005Z,79.75
2018-09-01T02:19:37.356Z,79.36
2018-09-01T02:20:17.758Z,79.36
2018-09-01T02:20:58.211Z,79.36
2018-09-01T02:21:38.637Z,79.65
2018-09-01T02:22:19.033Z,79.56
2018-09-01T02:22:59.392Z,79.36
2018-09-01T02:23:39.777Z,79.33
2018-09-01T02:24:20.244Z,79.27
2018-09-01T02:25:00.640Z,79.85
2018-09-01T02:25:41.038Z,79.56
2018-09-01T02:26:21.407Z,80.38
2018-09-01T02:27:01.855Z,80.47
2018-09-01T02:27:42.233Z,80.66
2018-09-01T02:28:22.569Z,80.85
2018-09-01T02:29:02.998Z,80.76
2018-09-01T02:29:43.378Z,81.43
2018-09-01T02:30:23.779Z,81.14
2018-09-01T02:31:04.179Z,81.04
2018-09-01T02:31:44.654Z,81.14
2018-09-01T02:32:25.045Z,81.33
2018-09-01T02:33:05.419Z,81.43
2018-09-01T02:33:45.847Z,82.09
2018-09-01T02:34:26.262Z,82.19
2018-09-01T02:35:06.676Z,82
2018-09-01T02:35:47.039Z,81.81
2018-09-01T02:36:27.510Z,81.62
2018-09-01T02:37:07.825Z,81.62
2018-09-01T02:37:48.178Z,81.52
2018-09-01T02:38:28.607Z,81.52
2018-09-01T02:39:09.004Z,81.81
2018-09-01T02:39:50.296Z,81.9
2018-09-01T02:40:30.678Z,82.57
2018-09-01T02:41:11.082Z,82.19
2018-09-01T02:41:51.451Z,82.19
2018-09-01T02:42:31.884Z,82.38
2018-09-01T02:43:12.265Z,82.53
2018-09-01T02:43:52.675Z,81.86
2018-09-01T02:44:33.093Z,81.58
2018-09-01T02:45:13.505Z,81.48
2018-09-01T02:45:53.844Z,81.71
2018-09-01T02:46:34.304Z,81.77
2018-09-01T02:47:14.621Z,82.24
2018-09-01T02:47:55.018Z,82.06
2018-09-01T02:48:35.494Z,82.34
2018-09-01T02:49:15.859Z,82.34
2018-09-01T02:49:56.242Z,81.58
2018-09-01T02:50:36.642Z,81.86
2018-09-01T02:51:17.031Z,81.58
2018-09-01T02:51:57.455Z,81.48
2018-09-01T02:52:37.825Z,82.53
2018-09-01T02:53:18.243Z,82.24
2018-09-01T02:53:58.617Z,82.15
2018-09-01T02:54:39.058Z,81.77
2018-09-01T02:55:19.386Z,81.96
2018-09-01T02:55:59.854Z,82.15
2018-09-01T02:56:40.190Z,82.24
2018-09-01T02:57:20.562Z,81.96
2018-09-01T02:58:00.998Z,82.15
2018-09-01T02:58:41.384Z,82.43
2018-09-01T02:59:21.767Z,83.01
2018-09-01T03:00:02.159Z,83.39
2018-09-01T03:00:42.533Z,83.58
2018-09-01T03:01:22.915Z,83.39
2018-09-01T03:02:03.346Z,83.2
2018-09-01T03:02:43.763Z,82.43
2018-09-01T03:03:24.172Z,82.72
2018-09-01T03:04:04.510Z,82.91
2018-09-01T03:04:44.914Z,82.63
2018-09-01T03:05:25.319Z,82.06
2018-09-01T03:06:05.743Z,82.34
2018-09-01T03:06:46.085Z,82.15
2018-09-01T03:07:26.518Z,82.24
2018-09-01T03:08:06.883Z,81.86
2018-09-01T03:08:47.301Z,82.06
2018-09-01T03:09:27.698Z,82.06
2018-09-01T03:10:08.176Z,82.63
2018-09-01T03:10:48.484Z,83.58
2018-09-01T03:11:28.849Z,83.58
2018-09-01T03:12:09.252Z,83.48
2018-09-01T03:12:49.616Z,83.48
2018-09-01T03:13:29.987Z,83.11
2018-09-01T03:14:10.389Z,83.11
2018-09-01T03:14:50.755Z,83.39
2018-09-01T03:15:31.169Z,82.63
2018-09-01T03:16:11.531Z,82.63
2018-09-01T03:16:51.922Z,83.01
2018-09-01T03:17:32.354Z,82.68
2018-09-01T03:18:12.744Z,82.68
2018-09-01T03:18:53.120Z,82.59
2018-09-01T03:19:33.509Z,83.35
2018-09-01T03:20:13.871Z,83.25
2018-09-01T03:20:54.349Z,83.35
2018-09-01T03:21:34.725Z,83.06
2018-09-01T03:22:15.006Z,83.16
2018-09-01T03:22:55.441Z,82.87
2018-09-01T03:23:35.925Z,83.25
2018-09-01T03:24:16.228Z,83.35
2018-09-01T03:24:56.643Z,84.01
2018-09-01T03:25:37.029Z,83.83
2018-09-01T03:26:17.455Z,83.92
2018-09-01T03:26:57.896Z,83.92
2018-09-01T03:27:38.179Z,84.2
2018-09-01T03:28:18.613Z,83.44
2018-09-01T03:28:59.033Z,84.11
2018-09-01T03:29:39.386Z,84.11
2018-09-01T03:30:19.827Z,83.92
2018-09-01T03:31:00.236Z,84.11
2018-09-01T03:31:40.618Z,83.92
2018-09-01T03:32:20.933Z,84.01
2018-09-01T03:33:01.350Z,84.11
2018-09-01T03:33:41.773Z,84.2
2018-09-01T03:34:22.135Z,84.2
2018-09-01T03:35:02.534Z,84.4
2018-09-01T03:35:42.957Z,84.4
2018-09-01T03:36:23.349Z,84.49
2018-09-01T03:37:03.769Z,85.64
2018-09-01T03:37:44.098Z,85.06
2018-09-01T03:38:24.559Z,85.16
2018-09-01T03:39:04.977Z,85.73
2018-09-01T03:39:45.354Z,85.83
2018-09-01T03:40:25.761Z,85.35
2018-09-01T03:41:06.181Z,85.3
2018-09-01T03:41:46.512Z,85.01
2018-09-01T03:42:26.957Z,85.11
2018-09-01T03:43:07.312Z,84.4
2018-09-01T03:43:47.856Z,83.87
2018-09-01T03:44:28.163Z,83.96
2018-09-01T03:45:08.579Z,83.39
2018-09-01T03:45:48.988Z,83.2
2018-09-01T03:46:29.298Z,83.48
2018-09-01T03:47:09.676Z,82.34
2018-09-01T03:47:50.146Z,82.34
2018-09-01T03:48:30.493Z,82.53
2018-09-01T03:49:10.932Z,82.53
2018-09-01T03:49:51.313Z,82.97
2018-09-01T03:50:31.684Z,82.97
2018-09-01T03:51:12.121Z,82.78
2018-09-01T03:51:52.499Z,83.16
2018-09-01T03:52:32.930Z,83.44
2018-09-01T03:53:13.462Z,84.01
2018-09-01T03:53:53.701Z,84.4
2018-09-01T03:54:34.153Z,84.4
2018-09-01T03:55:14.606Z,84.2
2018-09-01T03:55:55.060Z,84.06
2018-09-01T03:56:35.468Z,84.16
2018-09-01T03:57:15.820Z,84.06
2018-09-01T03:59:28.382Z,82.06
2018-09-01T04:00:08.805Z,82.24
2018-09-01T04:00:49.159Z,82.91
2018-09-01T04:01:29.569Z,83.77
2018-09-01T04:02:09.998Z,83.29
2018-09-01T04:02:50.382Z,83.11
2018-09-01T04:03:30.831Z,83.58
2018-09-01T04:04:11.209Z,82.91
2018-09-01T04:04:51.648Z,82.72
2018-09-01T04:05:31.995Z,82.82
2018-09-01T04:06:12.384Z,82.82
2018-09-01T04:06:52.755Z,82.15
2018-09-01T04:07:33.145Z,82.53
2018-09-01T04:08:13.538Z,81.1
2018-09-01T04:08:53.952Z,81.38
2018-09-01T04:09:34.320Z,80.43
2018-09-01T04:10:14.656Z,81.38
2018-09-01T04:10:55.044Z,81.58
2018-09-01T04:11:35.457Z,81.15
2018-09-01T04:12:15.820Z,80.72
2018-09-01T04:12:56.237Z,80.81
2018-09-01T04:13:36.685Z,80.05
2018-09-01T04:14:17.008Z,80.53
2018-09-01T04:14:57.413Z,80.77
2018-09-01T04:15:37.819Z,80.2
2018-09-01T04:16:18.250Z,80.77
2018-09-01T04:16:58.632Z,80.2
2018-09-01T04:17:39.023Z,81.35
2018-09-01T04:18:19.439Z,81.06
2018-09-01T04:18:59.809Z,81.15
2018-09-01T04:19:40.233Z,80.77
2018-09-01T04:20:20.619Z,81.63
2018-09-01T04:21:00.971Z,81.44
2018-09-01T04:21:41.414Z,82.2
2018-09-01T04:22:21.740Z,82.2
2018-09-01T04:23:02.152Z,81.92
2018-09-01T04:23:42.555Z,83.06
2018-09-01T04:24:23.063Z,82.68
2018-09-01T04:25:03.472Z,83.54
2018-09-01T04:25:43.834Z,82.59
2018-09-01T04:26:24.247Z,82.59
2018-09-01T04:27:04.572Z,82.3
2018-09-01T04:27:44.965Z,82.97
2018-09-01T04:28:25.416Z,82.59
2018-09-01T05:06:02.844Z,92.18
2018-09-01T05:06:43.170Z,92.27
2018-09-01T05:07:23.575Z,91.99
2018-09-01T05:08:03.931Z,92.27
2018-09-01T05:08:44.345Z,92.27
2018-09-01T05:09:24.759Z,91.89
2018-09-01T05:10:05.065Z,92.08
2018-09-01T05:10:45.480Z,91.13
2018-09-01T05:11:25.847Z,90.84
2018-09-01T05:12:06.336Z,89.84
2018-09-01T05:12:46.739Z,89.55
2018-09-01T05:13:27.114Z,88.22
2018-09-01T05:14:07.473Z,87.27
2018-09-01T05:14:47.869Z,87.17
2018-09-01T05:15:28.248Z,87.07
2018-09-01T05:16:08.684Z,87.4
2018-09-01T05:16:49.040Z,87.4
2018-09-01T05:17:29.452Z,85.41
2018-09-01T05:18:09.789Z,84.16
2018-09-01T05:18:50.269Z,84.07
2018-09-01T05:19:30.583Z,83.92
2018-09-01T05:20:10.993Z,83.44
2018-09-01T05:20:51.309Z,82.59
2018-09-01T05:21:31.743Z,81.35
2018-09-01T05:22:12.131Z,80.11
2018-09-01T05:22:52.552Z,80.2
2018-09-01T05:23:32.965Z,79.38
2018-09-01T05:24:13.459Z,79.19
2018-09-01T05:24:53.805Z,78.91
2018-09-01T05:25:34.131Z,78.23
2018-09-01T05:26:14.565Z,77.76
2018-09-01T05:26:54.927Z,77.67
2018-09-01T05:27:35.274Z,77.23
2018-09-01T05:28:15.726Z,76.27
2018-09-01T05:28:56.136Z,75.32
2018-09-01T05:29:36.506Z,75.32
2018-09-01T05:30:16.947Z,74.4
2018-09-01T05:30:57.363Z,73.92
2018-09-01T05:31:37.739Z,73.73
2018-09-01T05:32:18.101Z,73.35
2018-09-01T05:32:58.518Z,73
2018-09-01T05:33:38.966Z,72.24
2018-09-01T05:34:19.400Z,71.86
2018-09-01T05:34:59.755Z,71.19
2018-09-01T05:35:40.147Z,70.94
2018-09-01T05:36:20.561Z,70.07
2018-09-01T05:37:01.013Z,69.6
2018-09-01T05:37:41.399Z,69.21
2018-09-01T05:38:21.786Z,68.55
2018-09-01T05:39:02.168Z,68.26
2018-09-01T05:39:42.545Z,67.63
2018-09-01T05:40:22.986Z,67.82
2018-09-01T05:41:03.333Z,67.82
2018-09-01T05:41:43.694Z,67.14
2018-09-01T05:42:24.130Z,67.27
2018-09-01T05:43:04.537Z,65.74
2018-09-01T05:43:44.975Z,64.98
2018-09-01T05:44:25.299Z,64.15
2018-09-01T05:45:05.638Z,63.67
2018-09-01T05:45:46.040Z,63.57
2018-09-01T05:46:26.496Z,63.1
2018-09-01T05:47:06.814Z,63.19
2018-09-01T05:47:47.216Z,62.93
2018-09-01T05:48:27.660Z,62.36
2018-09-01T05:49:08.061Z,61.98
2018-09-01T05:49:48.515Z,61.4
2018-09-01T05:50:28.950Z,60.96
2018-09-01T05:51:09.308Z,60.47
2018-09-01T05:51:49.686Z,60.28
2018-09-01T05:52:30.063Z,60
2018-09-01T05:53:10.472Z,59.64
2018-09-01T05:53:50.972Z,58.78
2018-09-01T05:54:31.292Z,58.49
2018-09-01T05:55:11.771Z,57.92
2018-09-01T05:55:52.115Z,57.75
2018-09-01T05:56:32.504Z,57.28
2018-09-01T05:57:12.857Z,56.6
2018-09-01T05:57:53.300Z,56.89
2018-09-01T05:58:33.665Z,56.34
2018-09-01T05:59:14.014Z,55.77
2018-09-01T05:59:54.395Z,55.77
2018-09-01T06:01:51.971Z,54.64
2018-09-01T06:02:32.330Z,54.93
2018-09-01T06:03:12.727Z,53.78
2018-09-01T06:03:53.104Z,53.68
2018-09-01T06:04:33.503Z,53.68
2018-09-01T06:05:13.929Z,53.13
2018-09-01T06:05:54.361Z,52.65
2018-09-01T06:06:34.714Z,52.36
2018-09-01T06:07:15.174Z,52.65
2018-09-01T06:07:55.547Z,52.84
2018-09-01T06:08:35.920Z,52.58
2018-09-01T06:09:16.353Z,51.91
2018-09-01T06:09:56.713Z,51.17
2018-09-01T06:10:37.154Z,50.68
2018-09-01T06:11:17.531Z,50.4
2018-09-01T06:11:57.918Z,50.23
2018-09-01T06:12:38.344Z,49.46
2018-09-01T06:13:18.704Z,48.88
2018-09-01T06:13:59.083Z,48.3
2018-09-01T06:14:39.565Z,48.03
2018-09-01T06:15:19.950Z,47.56
2018-09-01T06:16:00.361Z,47.17
2018-09-01T06:16:40.753Z,47.27
2018-09-01T06:17:21.254Z,47.29
2018-09-01T06:18:01.603Z,47.1
2018-09-01T06:18:42.044Z,46.81
2018-09-01T06:19:22.428Z,46.81
2018-09-01T06:20:02.800Z,46.71
2018-09-01T06:20:43.232Z,46.04
2018-09-01T06:21:23.618Z,45.65
2018-09-01T06:22:04.081Z,45.29
2018-09-01T06:22:44.401Z,45.58
2018-09-01T06:23:24.803Z,45.97
2018-09-01T06:24:05.236Z,45.77
2018-09-01T06:24:45.608Z,45.58
2018-09-01T06:25:25.963Z,45.58
2018-09-01T06:26:06.425Z,45.6
2018-09-01T06:26:46.755Z,45.03
2018-09-01T06:27:27.165Z,45.04
2018-09-01T06:28:07.579Z,44.37
2018-09-01T06:28:47.989Z,43.98
2018-09-01T06:29:28.386Z,43.98
2018-09-01T06:30:08.879Z,43.31
2018-09-01T06:30:49.199Z,43.52
2018-09-01T06:31:29.656Z,43.43
2018-09-01T06:32:10.105Z,43.04
2018-09-01T06:32:50.524Z,43.04
2018-09-01T06:33:30.918Z,42.94
2018-09-01T06:34:11.279Z,42.94
2018-09-01T06:34:51.696Z,42.85
2018-09-01T06:35:32.141Z,42.75
2018-09-01T06:36:12.517Z,42.66
2018-09-01T06:36:52.959Z,42.68
2018-09-01T06:37:33.379Z,41.81
2018-09-01T06:38:13.740Z,41.61
2018-09-01T06:38:54.144Z,41.91
2018-09-01T06:39:34.538Z,41.71
2018-09-01T06:40:14.944Z,42.29
2018-09-01T06:40:55.355Z,42.48
2018-09-01T06:41:35.770Z,42.39
2018-09-01T06:42:16.172Z,42.58
2018-09-01T06:42:56.610Z,42
2018-09-01T06:43:37.019Z,41.91
2018-09-01T06:44:17.456Z,41.71
2018-09-01T06:44:57.884Z,41.42
2018-09-01T06:45:38.294Z,42.58
2018-09-01T06:46:18.739Z,42.48
2018-09-01T06:46:59.134Z,42.68
2018-09-01T06:47:39.549Z,42.48
2018-09-01T06:48:19.951Z,42.39
2018-09-01T06:49:00.352Z,42.39
2018-09-01T06:49:40.769Z,42.97
2018-09-01T06:50:21.148Z,42.77
2018-09-01T06:51:01.564Z,42.97
2018-09-01T06:51:41.964Z,43.26
2018-09-01T06:52:22.358Z,43.26
2018-09-01T06:53:02.804Z,43.26
2018-09-01T06:53:43.207Z,42.97
2018-09-01T06:54:23.651Z,42.97
2018-09-01T06:55:04.000Z,43.06
2018-09-01T06:55:44.477Z,43.26
2018-09-01T06:56:24.876Z,42.87
2018-09-01T06:57:05.272Z,43.06
2018-09-01T06:57:45.683Z,43.26
2018-09-01T06:58:26.085Z,43.54
2018-09-01T06:59:06.501Z,43.64
2018-09-01T06:59:46.918Z,43.26
2018-09-01T07:00:27.356Z,43.16
2018-09-01T07:01:07.703Z,43.08
2018-09-01T07:01:48.124Z,43.18
2018-09-01T07:02:28.552Z,42.99
2018-09-01T07:03:08.962Z,42.97
2018-09-01T07:03:49.343Z,43.28
2018-09-01T07:04:29.775Z,43.37
2018-09-01T07:05:10.182Z,43.18
2018-09-01T07:05:50.568Z,42.99
2018-09-01T07:06:30.976Z,42.99
2018-09-01T07:07:11.408Z,42.79
2018-09-01T07:09:04.033Z,42.79
2018-09-01T07:09:46.735Z,43.08
2018-09-01T07:10:27.143Z,42.6
2018-09-01T07:11:07.553Z,42.72
2018-09-01T07:11:48.008Z,42.72
2018-09-01T07:12:28.399Z,42.6
2018-09-01T07:13:08.769Z,42.72
2018-09-01T07:13:49.176Z,42.52
2018-09-01T07:14:29.619Z,42.24
2018-09-01T07:15:10.063Z,42.82
2018-09-01T07:15:50.395Z,42.91
2018-09-01T07:16:30.822Z,42.72
2018-09-01T07:18:24.415Z,42.16
2018-09-01T07:19:04.764Z,42.07
2018-09-01T07:30:53.198Z,39.78
2018-09-01T07:31:33.339Z,39.41
2018-09-01T07:32:13.372Z,39.8
2018-09-01T07:32:53.782Z,39.41
2018-09-01T07:33:34.204Z,39.41
2018-09-01T07:34:14.588Z,38.73
2018-09-01T07:34:55.001Z,38.76
2018-09-01T07:35:35.484Z,38.66
2018-09-01T07:36:15.856Z,38.17
2018-09-01T07:36:56.714Z,37.9
2018-09-01T07:37:37.629Z,37.61
2018-09-01T07:38:17.731Z,37.41
2018-09-01T07:38:58.207Z,37.61
2018-09-01T07:39:38.603Z,37.32
2018-09-01T07:40:32.740Z,37.03
2018-09-01T07:41:13.211Z,37.23
2018-09-01T07:41:53.545Z,36.95
2018-09-01T07:42:33.971Z,37.51
2018-09-01T07:43:14.451Z,37.41
2018-09-01T07:43:54.807Z,37.13
2018-09-01T07:44:35.224Z,37.53
2018-09-01T07:45:15.638Z,37.53
2018-09-01T07:45:56.135Z,37.15
2018-09-01T07:49:05.063Z,36.76
2018-09-01T07:51:00.526Z,37.15
2018-09-01T07:51:40.935Z,36.46
2018-09-01T07:52:21.423Z,36.76
2018-09-01T07:53:01.852Z,36.95
2018-09-01T07:53:43.999Z,37.15
2018-09-01T07:54:24.344Z,36.95
2018-09-01T07:55:04.782Z,36.38
2018-09-01T07:55:45.245Z,36.58
2018-09-01T07:56:25.895Z,36.38
2018-09-01T07:57:06.116Z,36.29
2018-09-01T07:57:46.490Z,36.48
2018-09-01T07:58:27.031Z,36.48
2018-09-01T07:59:07.432Z,36.29
2018-09-01T07:59:47.853Z,36
2018-09-01T08:00:28.615Z,35.72
2018-09-01T08:01:08.961Z,35.63
2018-09-01T08:01:49.396Z,35.45
2018-09-01T08:02:29.799Z,35.35
2018-09-01T08:03:10.330Z,34.77
2018-09-01T08:03:50.700Z,34.67
2018-09-01T08:04:31.283Z,34.67
2018-09-01T08:05:11.696Z,34.69
2018-09-01T08:08:13.465Z,34.98
2018-09-01T08:09:05.673Z,34.69
2018-09-01T08:11:40.026Z,35.16
2018-09-01T08:12:32.592Z,35.74
2018-09-01T08:13:25.551Z,35.64
2018-09-01T08:14:17.680Z,35.06
2018-09-01T08:15:09.838Z,34.48
2018-09-01T08:16:02.520Z,34.79
2018-09-01T08:16:55.642Z,34.69
2018-09-01T08:17:48.090Z,34.59
2018-09-01T08:18:41.502Z,34.22
2018-09-01T08:19:34.515Z,34.32
2018-09-01T08:20:27.141Z,33.44
2018-09-01T08:21:18.248Z,33.14
2018-09-01T08:23:13.442Z,34.2
2018-09-01T08:24:05.432Z,34.58
2018-09-01T08:24:57.126Z,35.51
2018-09-01T08:25:49.385Z,36.36
2018-09-01T08:26:41.690Z,37.05
2018-09-01T08:27:33.328Z,37.43
2018-09-01T08:29:34.414Z,37.53
2018-09-01T08:30:26.538Z,37.45
2018-09-01T08:31:18.860Z,36.48
2018-09-01T08:32:11.422Z,36.87
2018-09-01T08:33:03.948Z,36.4
2018-09-01T08:33:55.064Z,35.74
2018-09-01T08:35:54.885Z,35.17
2018-09-01T08:36:47.974Z,34.61
2018-09-01T08:37:33.601Z,34.32
2018-09-01T08:38:13.942Z,34.03
2018-09-01T08:38:54.413Z,33.46
2018-09-01T08:39:34.875Z,33.07
2018-09-01T08:40:15.352Z,32.97
2018-09-01T08:40:55.722Z,33.18
2018-09-01T08:41:36.099Z,32.4
2018-09-01T08:42:16.581Z,32.23
2018-09-01T08:42:56.966Z,31.54
2018-09-01T08:43:37.428Z,31.25
2018-09-01T08:44:17.982Z,31.73
2018-09-01T08:44:58.342Z,32.68
2018-09-01T08:45:38.735Z,32.67
2018-09-01T08:46:19.167Z,33.14
2018-09-01T08:46:59.561Z,32.86
2018-09-01T08:47:39.957Z,33.06
2018-09-01T08:48:20.367Z,33.54
2018-09-01T08:49:00.807Z,33.54
2018-09-01T08:49:41.211Z,34.2
2018-09-01T08:50:21.683Z,33.53
2018-09-01T08:51:02.062Z,32.94
2018-09-01T08:51:42.519Z,32.28
2018-09-01T08:52:23.002Z,32.37
2018-09-01T08:53:03.400Z,32.26
2018-09-01T08:53:43.864Z,32.65
2018-09-01T08:54:24.279Z,33.06
2018-09-01T08:55:04.694Z,32.18
2018-09-01T08:55:45.140Z,32.47
2018-09-01T08:56:25.569Z,33.22
2018-09-01T08:57:05.936Z,33.99
2018-09-01T08:57:46.386Z,33.61
2018-09-01T08:58:26.755Z,33.51
2018-09-01T08:59:07.132Z,33.41
2018-09-01T08:59:47.582Z,34.01
2018-09-01T09:00:28.034Z,32.65
2018-09-01T09:01:08.436Z,31.58
2018-09-01T09:04:03.433Z,30.33
2018-09-01T09:04:55.797Z,30.43
2018-09-01T09:05:53.688Z,30.35
2018-09-01T09:07:19.682Z,29.29
2018-09-01T09:08:21.982Z,28.51
2018-09-01T09:09:16.654Z,28.43
2018-09-01T09:10:07.671Z,28.04
2018-09-01T09:11:02.116Z,27.36
2018-09-01T09:15:35.456Z,27.8
2018-09-01T09:16:15.880Z,28.28
2018-09-01T09:16:56.598Z,28.94
2018-09-01T09:21:35.173Z,28.19
2018-09-01T09:22:15.998Z,28.19
2018-09-01T09:22:56.761Z,28.29
2018-09-01T09:23:37.323Z,28.49
2018-09-01T09:24:17.750Z,27.9
2018-09-01T09:28:11.697Z,27.04
2018-09-01T09:28:52.215Z,27.22
2018-09-01T09:29:32.868Z,27.03
2018-09-01T09:30:14.068Z,27.03
2018-09-01T09:30:54.600Z,26.64
2018-09-01T09:32:52.277Z,25.58
2018-09-01T09:33:34.032Z,25.68
2018-09-01T09:34:16.443Z,26.65
2018-09-01T09:34:56.365Z,26.26
2018-09-01T09:35:37.362Z,26.07
2018-09-01T09:36:18.195Z,25.68
2018-09-01T09:36:58.991Z,25.68
2018-09-01T09:37:39.829Z,25.97
2018-09-01T09:38:20.262Z,25.18
2018-09-01T09:39:00.982Z,25.96
2018-09-01T09:39:42.325Z,25.75
2018-09-01T09:40:22.887Z,26.61
2018-09-01T09:41:03.259Z,26.62
2018-09-01T09:41:44.867Z,26.23
2018-09-01T09:42:26.040Z,25.26
2018-09-01T09:43:06.849Z,25.57
2018-09-01T09:43:47.842Z,25.27
2018-09-01T09:44:28.317Z,25.27
2018-09-01T09:45:08.797Z,25.68
2018-09-01T09:48:22.322Z,25.96
2018-09-01T09:49:05.644Z,25.19
2018-09-01T09:49:47.264Z,25.69
2018-09-01T09:50:28.849Z,24.72
2018-09-01T09:51:09.035Z,25.38
2018-09-01T09:51:49.966Z,24.98
2018-09-01T09:52:31.161Z,25.36
2018-09-01T09:53:12.245Z,26.72
2018-09-01T09:53:56.680Z,27.21
2018-09-01T09:54:37.039Z,27.22
2018-09-01T09:55:18.128Z,26.73
2018-09-01T09:55:58.328Z,26.44
2018-09-01T09:56:39.152Z,25.87
2018-09-01T09:57:21.220Z,25.68
2018-09-01T10:02:05.966Z,26.06
2018-09-01T10:05:46.968Z,25.19
2018-09-01T10:06:29.945Z,25.1
2018-09-01T10:07:10.186Z,24.82
2018-09-01T10:07:50.810Z,24.91
2018-09-01T10:08:31.704Z,25.02
2018-09-01T10:09:11.723Z,24.24
2018-09-01T10:09:52.102Z,23.56
2018-09-01T10:10:32.478Z,23.55
2018-09-01T10:11:12.963Z,24.21
2018-09-01T10:11:53.315Z,24.89
2018-09-01T10:12:34.048Z,26.25
2018-09-01T10:13:14.499Z,26.04
2018-09-01T10:15:01.817Z,26.33
2018-09-01T10:15:43.889Z,26.15
2018-09-01T10:16:24.185Z,25.57
2018-09-01T10:19:00.294Z,25.09
2018-09-01T10:19:52.887Z,24.51
2018-09-01T10:20:49.428Z,25.86
2018-09-01T10:21:44.817Z,25.96
2018-09-01T10:22:37.134Z,25.76
2018-09-01T10:23:29.410Z,25.38
2018-09-01T10:24:22.025Z,24.71
2018-09-01T10:25:15.616Z,24.62
2018-09-01T10:26:12.095Z,24.23